• Join FlightAware (Why Join?)
  • Login
  • US Flag 
12:28AM EDT


 

Airport Tracker/Info


-or-


 

Live Flight TrackerFlight Track Log ✈ DAL6120 ✈ 27-Nov-2013 ✈ KIND - KMEM

Flight Track Log - Related Links

Times and Time Zones

All times are in EST time to prevent confusion due to time zone crossing. See the DAL6120 flight status page for this flight to view local times or setup timezone preferences in your user account.

Time Position Orientation Groundspeed Altitude Reporting Facility
EST Latitude Longitude Course Direction KTS MPH feet Rate Location/Type
08:12AM 39.7000 -86.3000 191° South 128 147 1,300  Level Indianapolis TRACON
08:12AM 39.7000 -86.3000 191° South 134 154 2,000 2,100 Climbing Indianapolis TRACON
08:13AM 39.6075 -86.3558 205° Southwest 252 290 5,200 2,400 Climbing Indianapolis Center
08:14AM 39.5411 -86.3925 203° Southwest 259 298 8,100 2,520 Climbing Indianapolis Center
08:15AM 39.3368 -86.6159 206° Southwest  Level Estimated
08:16AM 39.2415 -86.6957 203° Southwest  Level Estimated
08:16AM 39.4672 -86.4344 204° Southwest 279 321 10,400  Level Indianapolis Center
08:17AM 39.1302 -86.7242 191° South  Level FlightAware Approximate
08:17AM 39.3875 -86.4781 203° Southwest 303 349 12,600  Level Indianapolis Center
08:18AM 39.3039 -86.5236 203° Southwest 320 368 14,500 1,920 Climbing Indianapolis Center
08:19AM 39.1983 -86.5828 203° Southwest 340 391 16,600 1,620 Climbing Indianapolis Center
08:20AM 39.1214 -86.6261 204° Southwest 351 404 17,900 1,500 Climbing Indianapolis Center
08:21AM 39.0303 -86.6806 205° Southwest 357 411 19,700 1,620 Climbing Indianapolis Center
08:22AM 38.9158 -86.7492 205° Southwest 377 434 21,300 1,260 Climbing Indianapolis Center
08:23AM 38.8108 -86.8111 205° Southwest 409 471 22,400 1,020 Climbing Indianapolis Center
08:24AM 38.7053 -86.8742 205° Southwest 416 479 23,500 1,020 Climbing Indianapolis Center
08:25AM 38.6003 -86.9450 208° Southwest 423 487 24,600 1,020 Climbing Indianapolis Center
08:26AM 38.5114 -87.0378 219° Southwest 414 476 25,600 1,020 Climbing Indianapolis Center
08:27AM 38.4222 -87.1300 219° Southwest 416 479 26,700 1,020 Climbing Indianapolis Center
08:28AM 38.3350 -87.2186 219° Southwest 411 473 27,700 600 Climbing Indianapolis Center
08:29AM 38.2281 -87.3294 219° Southwest 418 481 28,000 120 Climbing Indianapolis Center
08:30AM 38.1328 -87.4258 219° Southwest 433 498 28,000  Level Indianapolis Center
08:31AM 38.0356 -87.5258 219° Southwest 445 512 28,000 -60 Level Indianapolis Center
08:32AM 37.9367 -87.6261 219° Southwest 452 520 27,900  Descending Indianapolis Center
08:33AM 37.8375 -87.7269 219° Southwest 454 522 28,000  Climbing Indianapolis Center
08:34AM 37.7292 -87.8344 218° Southwest 454 522 27,900  Descending Indianapolis Center
08:35AM 37.6297 -87.9336 218° Southwest 453 521 28,000  Climbing Indianapolis Center
08:36AM 37.5142 -88.0142 209° Southwest 469 540 28,000  Level Indianapolis Center
08:37AM 37.3950 -88.0872 206° Southwest 473 544 28,000 -60 Level Indianapolis Center
08:38AM 37.3217 -88.1314 206° Southwest 476 548 27,900  Descending Memphis Center
08:39AM 37.1775 -88.2172 205° Southwest 476 548 28,000  Climbing Memphis Center
08:40AM 37.0556 -88.2906 206° Southwest 481 554 28,000  Level Memphis Center
08:41AM 36.9333 -88.3636 206° Southwest 484 557 28,000  Level Memphis Center
08:42AM 36.8114 -88.4361 205° Southwest 483 556 28,000  Level Memphis Center
08:43AM 36.6900 -88.5086 206° Southwest 483 556 28,000 -60 Level Memphis Center
08:44AM 36.5675 -88.5814 206° Southwest 485 558 27,900 -240 Descending Memphis Center
08:45AM 36.4478 -88.6514 205° Southwest 478 550 27,600 -540 Descending Memphis Center
08:46AM 36.3314 -88.7200 205° Southwest 466 536 26,900 -780 Descending Memphis Center
08:47AM 36.2175 -88.7864 205° Southwest 455 524 26,100 -900 Descending Memphis Center
08:48AM 36.1036 -88.8533 205° Southwest 450 518 25,100 -1,140 Descending Memphis Center
08:49AM 35.9919 -88.9197 206° Southwest 445 512 23,800 -1,560 Descending Memphis Center
08:50AM 35.8817 -88.9828 205° Southwest 437 503 22,000 -2,100 Descending Memphis Center
08:51AM 35.7542 -89.0561 205° Southwest 422 486 19,500 -2,160 Descending Memphis Center
08:52AM 35.6742 -89.1403 221° Southwest 387 445 17,600 -2,040 Descending Memphis Center
08:53AM 35.6028 -89.2350 227° Southwest 377 434 15,400 -2,400 Descending Memphis Center
08:54AM 35.5314 -89.3261 226° Southwest 371 427 12,700 -2,100 Descending Memphis Center
08:55AM 35.4528 -89.3947 215° Southwest 351 404 11,100 -1,620 Descending Memphis Center
08:56AM 35.3714 -89.4386 204° Southwest 323 372 9,500 -1,740 Descending Memphis Center
08:57AM 35.2967 -89.4814 205° Southwest 300 345 7,600 -1,860 Descending Memphis Center
08:58AM 35.2367 -89.5428 220° Southwest 281 323 5,700 -1,860 Descending Memphis Center
08:59AM 35.1789 -89.6017 220° Southwest 271 312 3,800 -1,380 Descending Memphis Center
09:00AM 35.1253 -89.6581 221° Southwest 262 302 2,900 -420 Descending Memphis Center
09:01AM 35.0742 -89.7308 229° Southwest 252 290 3,000  Climbing Memphis Center
09:02AM 35.0567 -89.8083 255° West 244 281 3,000 -540 Level Memphis Center
09:03AM 35.0556 -89.8650 269° West 184 212 2,000 -960 Descending Memphis Center
09:04AM 35.0500 -89.9000 259° West 119 137 1,400 -840 Descending KMEM
09:05AM 35.0500 -89.9333 270° West 133 153 600 -840 Descending KMEM